Airfield :







YOU CAN JOIN US ON...

 
LOGIN :

Register | Disclaimer

   EN    FR    IT 

 









Legend :    VFR   Marginal VFR   IFR   Intensive IFR   Very Intensive IFR
Visi :
Ceiling :
>= 8 km
>= 3000ft
5 to 8 km
1000 to 3000 ft
1500m to 5 km
500 to 1000 ft
800 to 1500m
200 to 500 ft
< 800m
< 200 ft
Symbols :   Thunderstorms  Fog  Heavy snow  Heavy precipitations  Wind > 20 kt






- Airport Elevation : 489 ft


KHUL - Houlton International

CURRENT METAR :
  • 252138Z AUTO VRB03KT 2 1/2SM -SN BR OVC020 M02/M04 A3027 RMK AO2 P0000 T10221039

EXPIRED METARs :
  • 252123Z AUTO VRB03KT 1 1/2SM -SN BR BKN019 OVC026 M02/M04 A3027 RMK AO2 P0000 T10221039
  • 252116Z AUTO 16004KT 2SM -SN BR BKN019 OVC026 M02/M04 A3027 RMK AO2 P0000 T10221039
  • 252109Z AUTO 17004KT 1 3/4SM -SN BR OVC017 M02/M04 A3028 RMK AO2 P0000 T10221044
  • 252053Z AUTO VRB04KT 1 1/4SM -SN BR OVC017 M03/M04 A3028 RMK AO2 SLP263 P0001 60004 T10281044 56025
  • 252005Z AUTO 16006KT 1SM -SN BR FEW011 OVC024 M03/M05 A3029 RMK AO2 P0000 T10331050
  • 251953Z AUTO VRB04KT 1 1/2SM -SN BR SCT011 OVC020 M03/M06 A3029 RMK AO2 SLP269 P0001 T10331056
  • 251934Z AUTO 16005KT 3/4SM -SN BR FEW010 OVC019 M03/M06 A3030 RMK AO2 P0001 T10331056
  • 251913Z AUTO VRB04KT 1SM -SN BR OVC023 M04/M06 A3031 RMK AO2 P0000 T10391056
  • 251903Z AUTO VRB04KT 3/4SM -SN BR OVC021 M04/M06 A3032 RMK AO2 P0000 T10391061

TAF KHUL
Valid from the 25 at 18:00 until the 26 at 18:00 UTC


251735Z 2518/2618 17007KT 1SM -SN OVC010
FM260200 20003KT 3SM -RA BR OVC008
FM260600 00000KT 1SM BR BKN002
FM261200 00000KT P6SM BKN025
FM261400 07003KT P6SM VCSH BKN002
KZBW FIR / North America



MET'MAP, your aeronautical weather chart ! - Copyright ORBIFLY December 2007 - Disclaimer

ORBIFLY MET'MAP TEAM :

Programming & Development : Alexandra Zaïnal
Concept & original design : Baudouin d'Aumeries
Assistance for programming : Marc-Olivier Méhu
Technical & hardware support : Manuel Goepfert

Contact : metmap@orbifly.com




SOURCES & CREDITS :

   NOAA